Time,TemperatureF,DewpointF,PressureIn,WindDirection,WindDirectionDegrees,WindSpeedMPH,WindSpeedGustMPH,Humidity,HourlyPrecipIn,Conditions,Clouds,dailyrainin,SoftwareType,DateUTC
2013-06-18 00:04:00,83.5,73.1,29.71,South,180,0.9,5.6,71,0.00,,---,0.00,VWS V13.01,2013-06-18 04:04:00,
2013-06-18 00:09:00,83.5,73.1,29.71,South,180,0.0,0.9,71,0.00,,---,0.00,VWS V13.01,2013-06-18 04:09:00,
2013-06-18 00:19:00,83.5,73.1,29.70,SSE,158,0.9,6.9,71,0.00,,---,0.00,VWS V13.01,2013-06-18 04:19:00,
2013-06-18 00:24:00,83.3,72.9,29.70,SSE,158,2.7,3.8,71,0.00,,---,0.00,VWS V13.01,2013-06-18 04:24:00,
2013-06-18 00:29:00,83.3,72.9,29.70,SE,135,2.5,5.6,71,0.00,,---,0.00,VWS V13.01,2013-06-18 04:29:00,
2013-06-18 00:34:00,83.3,72.9,29.70,SSE,158,0.0,2.5,71,0.00,,---,0.00,VWS V13.01,2013-06-18 04:34:00,
2013-06-18 00:39:00,83.3,72.9,29.70,SSE,158,4.9,4.9,71,0.00,,---,0.00,VWS V13.01,2013-06-18 04:39:00,
2013-06-18 00:44:00,83.3,72.9,29.70,SSE,158,0.0,4.9,71,0.00,,---,0.00,VWS V13.01,2013-06-18 04:44:00,
2013-06-18 00:54:00,83.1,72.8,29.70,SE,135,0.0,3.4,71,0.00,,---,0.00,VWS V13.01,2013-06-18 04:54:00,
2013-06-18 01:04:00,83.1,72.8,29.70,ESE,112,0.0,2.9,71,0.00,,---,0.00,VWS V13.01,2013-06-18 05:04:00,
2013-06-18 01:14:00,83.1,73.2,29.70,SE,135,0.0,1.3,72,0.00,,---,0.00,VWS V13.01,2013-06-18 05:14:00,
2013-06-18 01:24:00,83.1,73.2,29.70,South,180,0.4,1.1,72,0.00,,---,0.00,VWS V13.01,2013-06-18 05:24:00,
2013-06-18 01:34:00,83.1,73.2,29.69,SSE,158,0.7,0.7,72,0.00,,---,0.00,VWS V13.01,2013-06-18 05:34:00,
2013-06-18 01:39:00,83.1,73.2,29.69,South,180,0.0,0.7,72,0.00,,---,0.00,VWS V13.01,2013-06-18 05:39:00,
2013-06-18 01:49:00,82.9,72.6,29.69,South,180,1.6,1.6,71,0.00,,---,0.00,VWS V13.01,2013-06-18 05:49:00,
2013-06-18 01:59:00,82.9,72.6,29.69,SSE,158,0.0,2.0,71,0.00,,---,0.00,VWS V13.01,2013-06-18 05:59:00,
2013-06-18 02:09:00,82.9,72.6,29.69,SSE,158,0.0,0.0,71,0.00,,---,0.00,VWS V13.01,2013-06-18 06:09:00,
2013-06-18 02:14:00,82.8,72.4,29.68,SSE,158,0.0,0.0,71,0.00,,---,0.00,VWS V13.01,2013-06-18 06:14:00,
2013-06-18 02:24:00,82.8,72.4,29.68,SE,135,2.5,2.5,71,0.00,,---,0.00,VWS V13.01,2013-06-18 06:24:00,
2013-06-18 02:29:00,82.8,72.4,29.68,SSE,158,0.0,2.5,71,0.00,,---,0.00,VWS V13.01,2013-06-18 06:29:00,
2013-06-18 02:39:00,82.6,72.2,29.68,SSE,158,0.0,0.0,71,0.00,,---,0.00,VWS V13.01,2013-06-18 06:39:00,
2013-06-18 02:49:00,82.6,72.2,29.68,SSE,158,2.7,3.1,71,0.00,,---,0.00,VWS V13.01,2013-06-18 06:49:00,
2013-06-18 02:54:00,82.6,72.2,29.68,SSE,158,0.7,2.7,71,0.00,,---,0.00,VWS V13.01,2013-06-18 06:54:00,
2013-06-18 03:04:00,82.4,72.1,29.69,South,180,0.2,2.2,71,0.00,,---,0.00,VWS V13.01,2013-06-18 07:04:00,
2013-06-18 03:09:00,82.4,72.1,29.68,South,180,0.2,0.2,71,0.00,,---,0.00,VWS V13.01,2013-06-18 07:09:00,
2013-06-18 03:19:00,82.4,72.1,29.68,SSE,158,0.0,0.0,71,0.00,,---,0.00,VWS V13.01,2013-06-18 07:19:00,
2013-06-18 03:24:00,82.2,71.9,29.68,SSE,158,0.0,0.0,71,0.00,,---,0.00,VWS V13.01,2013-06-18 07:24:00,
2013-06-18 03:34:00,82.2,71.9,29.68,South,180,0.9,0.9,71,0.00,,---,0.00,VWS V13.01,2013-06-18 07:34:00,
2013-06-18 03:39:00,82.2,72.3,29.68,South,180,1.6,1.6,72,0.00,,---,0.00,VWS V13.01,2013-06-18 07:39:00,
2013-06-18 03:44:00,82.2,72.3,29.68,SSE,158,0.0,2.9,72,0.00,,---,0.00,VWS V13.01,2013-06-18 07:44:00,
2013-06-18 03:54:00,82.2,72.3,29.67,SSE,158,0.0,0.0,72,0.00,,---,0.00,VWS V13.01,2013-06-18 07:54:00,
2013-06-18 04:04:00,82.2,72.7,29.67,ESE,112,0.0,1.3,73,0.00,,---,0.00,VWS V13.01,2013-06-18 08:04:00,
2013-06-18 04:14:00,82.0,72.5,29.67,SSE,158,0.0,0.0,73,0.00,,---,0.00,VWS V13.01,2013-06-18 08:14:00,
2013-06-18 04:24:00,82.0,72.5,29.66,SSE,158,0.0,5.4,73,0.00,,---,0.00,VWS V13.01,2013-06-18 08:24:00,
2013-06-18 04:34:00,82.0,72.5,29.67,South,180,2.5,2.5,73,0.00,,---,0.00,VWS V13.01,2013-06-18 08:34:00,
2013-06-18 04:39:00,82.0,72.5,29.67,SSE,158,3.1,3.1,73,0.00,,---,0.00,VWS V13.01,2013-06-18 08:39:00,
2013-06-18 04:49:00,82.0,72.5,29.66,SSE,158,0.0,1.1,73,0.00,,---,0.00,VWS V13.01,2013-06-18 08:49:00,
2013-06-18 04:54:00,81.9,72.4,29.66,SSE,158,0.2,0.2,73,0.00,,---,0.00,VWS V13.01,2013-06-18 08:54:00,
2013-06-18 05:04:00,81.9,72.4,29.67,SSE,158,0.0,0.0,73,0.00,,---,0.00,VWS V13.01,2013-06-18 09:04:00,
2013-06-18 05:14:00,81.7,72.6,29.67,SSE,158,0.0,0.0,74,0.00,,---,0.00,VWS V13.01,2013-06-18 09:14:00,
2013-06-18 05:24:00,81.7,72.6,29.67,SSE,158,0.0,0.0,74,0.00,,---,0.00,VWS V13.01,2013-06-18 09:24:00,
2013-06-18 05:34:00,81.7,72.6,29.67,South,180,2.0,2.0,74,0.00,,---,0.00,VWS V13.01,2013-06-18 09:34:00,
2013-06-18 05:44:00,81.7,72.2,29.67,South,180,3.4,4.5,73,0.00,,---,0.00,VWS V13.01,2013-06-18 09:44:00,
2013-06-18 05:54:00,81.7,72.2,29.67,SSE,158,0.7,1.8,73,0.00,,---,0.00,VWS V13.01,2013-06-18 09:54:00,
2013-06-18 06:04:00,81.7,72.2,29.67,SE,135,1.3,1.3,73,0.00,,---,0.00,VWS V13.01,2013-06-18 10:04:00,
2013-06-18 06:09:00,81.7,72.2,29.67,SSE,158,0.0,1.3,73,0.00,,---,0.00,VWS V13.01,2013-06-18 10:09:00,
2013-06-18 06:19:00,81.7,72.2,29.67,SSW,202,2.5,8.5,73,0.00,,---,0.00,VWS V13.01,2013-06-18 10:19:00,
2013-06-18 06:29:00,81.7,72.2,29.67,SSE,158,2.7,2.7,73,0.00,,---,0.00,VWS V13.01,2013-06-18 10:29:00,
2013-06-18 06:34:00,81.7,72.2,29.67,SSE,158,1.6,2.7,73,0.00,,---,0.00,VWS V13.01,2013-06-18 10:34:00,
2013-06-18 06:44:00,81.5,72.0,29.67,SSE,158,0.4,3.8,73,0.00,,---,0.00,VWS V13.01,2013-06-18 10:44:00,
2013-06-18 06:54:00,81.5,72.0,29.66,ESE,112,2.9,2.9,73,0.00,,---,0.00,VWS V13.01,2013-06-18 10:54:00,
2013-06-18 07:04:00,81.5,72.0,29.67,SSE,158,1.3,1.3,73,0.00,,---,0.00,VWS V13.01,2013-06-18 11:04:00,
2013-06-18 07:14:00,82.2,72.7,29.67,SSE,158,3.6,3.6,73,0.00,,---,0.00,VWS V13.01,2013-06-18 11:14:00,
2013-06-18 07:24:00,82.6,72.7,29.67,SSE,158,0.0,2.5,72,0.00,,---,0.00,VWS V13.01,2013-06-18 11:24:00,
2013-06-18 07:34:00,82.9,72.6,29.68,SSE,158,1.8,2.5,71,0.00,,---,0.00,VWS V13.01,2013-06-18 11:34:00,
2013-06-18 07:39:00,82.9,72.6,29.68,ESE,112,3.4,3.4,71,0.00,,---,0.00,VWS V13.01,2013-06-18 11:39:00,
2013-06-18 07:49:00,83.3,72.9,29.68,SSE,158,2.5,2.5,71,0.00,,---,0.00,VWS V13.01,2013-06-18 11:49:00,
2013-06-18 07:54:00,83.5,73.1,29.68,ESE,112,1.3,2.5,71,0.00,,---,0.00,VWS V13.01,2013-06-18 11:54:00,
2013-06-18 07:59:00,83.8,73.0,29.68,SSW,202,4.5,4.5,70,0.00,,---,0.00,VWS V13.01,2013-06-18 11:59:00,
2013-06-18 08:09:00,84.2,72.9,29.69,ESE,112,3.1,3.1,69,0.00,,---,0.00,VWS V13.01,2013-06-18 12:09:00,
2013-06-18 08:19:00,84.4,73.1,29.70,SW,225,5.8,5.8,69,0.00,,---,0.00,VWS V13.01,2013-06-18 12:19:00,
2013-06-18 08:29:00,84.7,73.4,29.70,South,180,3.1,6.0,69,0.00,,---,0.00,VWS V13.01,2013-06-18 12:29:00,
2013-06-18 08:39:00,85.3,73.5,29.71,SSW,202,6.0,8.5,68,0.00,,---,0.00,VWS V13.01,2013-06-18 12:39:00,
2013-06-18 08:49:00,86.5,74.7,29.71,South,180,9.8,9.8,68,0.00,,---,0.00,VWS V13.01,2013-06-18 12:49:00,
2013-06-18 08:59:00,87.1,74.3,29.71,South,180,7.2,7.2,66,0.00,,---,0.00,VWS V13.01,2013-06-18 12:59:00,
2013-06-18 09:04:00,87.3,74.5,29.71,South,180,7.4,7.4,66,0.00,,---,0.00,VWS V13.01,2013-06-18 13:04:00,
2013-06-18 09:14:00,88.0,74.8,29.71,ESE,112,0.9,0.9,65,0.00,,---,0.00,VWS V13.01,2013-06-18 13:14:00,
2013-06-18 09:19:00,88.0,74.3,29.71,SSE,158,6.5,6.5,64,0.00,,---,0.00,VWS V13.01,2013-06-18 13:19:00,
2013-06-18 09:29:00,88.2,74.4,29.71,East,90,4.9,6.7,64,0.00,,---,0.00,VWS V13.01,2013-06-18 13:29:00,
2013-06-18 09:34:00,88.3,74.6,29.71,SSW,202,8.3,8.3,64,0.00,,---,0.00,VWS V13.01,2013-06-18 13:34:00,
2013-06-18 09:44:00,88.9,75.1,29.71,ESE,112,2.2,4.7,64,0.00,,---,0.00,VWS V13.01,2013-06-18 13:44:00,
2013-06-18 09:49:00,88.9,75.1,29.71,East,90,8.1,8.1,64,0.00,,---,0.00,VWS V13.01,2013-06-18 13:49:00,
2013-06-18 09:59:00,89.4,75.6,29.71,ESE,112,9.0,9.0,64,0.00,,---,0.00,VWS V13.01,2013-06-18 13:59:00,
2013-06-18 10:04:00,89.8,75.5,29.71,SE,135,0.4,9.0,63,0.00,,---,0.00,VWS V13.01,2013-06-18 14:04:00,
2013-06-18 10:14:00,90.0,75.2,29.71,ESE,112,5.1,11.6,62,0.00,,---,0.00,VWS V13.01,2013-06-18 14:14:00,
2013-06-18 10:24:00,90.3,76.0,29.71,SE,135,0.0,7.4,63,0.00,,---,0.00,VWS V13.01,2013-06-18 14:24:00,
2013-06-18 10:34:00,91.0,75.7,29.72,SSW,202,7.4,9.0,61,0.00,,---,0.00,VWS V13.01,2013-06-18 14:34:00,
2013-06-18 10:44:00,91.2,75.9,29.72,SE,135,0.0,5.4,61,0.00,,---,0.00,VWS V13.01,2013-06-18 14:44:00,
2013-06-18 10:54:00,91.8,76.4,29.71,SSE,158,4.5,4.5,61,0.00,,---,0.00,VWS V13.01,2013-06-18 14:54:00,
2013-06-18 11:04:00,91.8,75.4,29.71,South,180,7.6,8.1,59,0.00,,---,0.00,VWS V13.01,2013-06-18 15:04:00,
2013-06-18 11:09:00,91.8,75.9,29.72,SSW,202,7.4,11.2,60,0.00,,---,0.00,VWS V13.01,2013-06-18 15:09:00,
2013-06-18 11:19:00,91.8,75.4,29.72,SE,135,3.4,9.4,59,0.00,,---,0.00,VWS V13.01,2013-06-18 15:19:00,
2013-06-18 11:29:00,91.8,75.9,29.72,East,90,2.5,3.1,60,0.00,,---,0.00,VWS V13.01,2013-06-18 15:29:00,
2013-06-18 11:34:00,92.1,76.2,29.72,SSE,158,2.7,9.6,60,0.00,,---,0.00,VWS V13.01,2013-06-18 15:34:00,
2013-06-18 11:44:00,91.9,76.1,29.72,SE,135,6.9,8.3,60,0.00,,---,0.00,VWS V13.01,2013-06-18 15:44:00,
2013-06-18 11:54:00,92.5,76.1,29.71,SE,135,5.8,5.8,59,0.00,,---,0.00,VWS V13.01,2013-06-18 15:54:00,
2013-06-18 12:04:00,92.5,76.1,29.71,ESE,112,7.6,10.1,59,0.00,,---,0.00,VWS V13.01,2013-06-18 16:04:00,
2013-06-18 12:14:00,92.5,76.1,29.71,SE,135,0.0,9.0,59,0.00,,---,0.00,VWS V13.01,2013-06-18 16:14:00,
2013-06-18 12:19:00,92.5,75.6,29.71,SE,135,5.4,7.2,58,0.00,,---,0.00,VWS V13.01,2013-06-18 16:19:00,
2013-06-18 12:24:00,92.1,75.2,29.71,ESE,112,4.9,5.4,58,0.00,,---,0.00,VWS V13.01,2013-06-18 16:24:00,
2013-06-18 12:34:00,92.1,75.7,29.71,SE,135,9.6,9.6,59,0.00,,---,0.00,VWS V13.01,2013-06-18 16:34:00,
2013-06-18 12:39:00,92.8,75.4,29.71,SSE,158,7.2,9.6,57,0.00,,---,0.00,VWS V13.01,2013-06-18 16:39:00,
2013-06-18 12:44:00,93.4,75.9,29.70,SSE,158,2.5,11.2,57,0.00,,---,0.00,VWS V13.01,2013-06-18 16:44:00,
2013-06-18 12:54:00,93.7,76.2,29.70,SSE,158,6.5,6.5,57,0.00,,---,0.00,VWS V13.01,2013-06-18 16:54:00,
2013-06-18 13:04:00,94.3,76.7,29.70,SSW,202,7.6,7.6,57,0.00,,---,0.00,VWS V13.01,2013-06-18 17:04:00,
2013-06-18 13:14:00,94.3,76.2,29.70,ESE,112,2.0,5.8,56,0.00,,---,0.00,VWS V13.01,2013-06-18 17:14:00,
2013-06-18 13:19:00,94.1,76.0,29.69,SE,135,10.5,10.5,56,0.00,,---,0.00,VWS V13.01,2013-06-18 17:19:00,
2013-06-18 13:29:00,93.0,75.5,29.70,SSE,158,6.0,8.1,57,0.00,,---,0.00,VWS V13.01,2013-06-18 17:29:00,
2013-06-18 13:34:00,93.4,75.9,29.69,SSE,158,4.0,6.0,57,0.00,,---,0.00,VWS V13.01,2013-06-18 17:34:00,
2013-06-18 13:44:00,93.2,74.6,29.69,East,90,7.8,11.2,55,0.00,,---,0.00,VWS V13.01,2013-06-18 17:44:00,
2013-06-18 13:54:00,93.6,76.1,29.69,ESE,112,3.8,14.1,57,0.00,,---,0.00,VWS V13.01,2013-06-18 17:54:00,
2013-06-18 13:59:00,93.6,76.1,29.69,ESE,112,3.8,3.8,57,0.00,,---,0.00,VWS V13.01,2013-06-18 17:59:00,
2013-06-18 14:09:00,93.6,76.6,29.69,SE,135,6.0,10.5,58,0.00,,---,0.00,VWS V13.01,2013-06-18 18:09:00,
2013-06-18 14:19:00,94.1,76.6,29.68,ENE,68,9.8,9.8,57,0.00,,---,0.00,VWS V13.01,2013-06-18 18:19:00,
2013-06-18 14:29:00,93.7,75.7,29.68,SE,135,4.3,4.3,56,0.00,,---,0.00,VWS V13.01,2013-06-18 18:29:00,
2013-06-18 14:39:00,94.1,76.6,29.68,SE,135,6.5,6.5,57,0.00,,---,0.00,VWS V13.01,2013-06-18 18:39:00,
2013-06-18 14:49:00,94.3,76.2,29.68,SE,135,12.5,12.5,56,0.00,,---,0.00,VWS V13.01,2013-06-18 18:49:00,
2013-06-18 14:54:00,94.5,76.3,29.68,ESE,112,5.6,12.5,56,0.00,,---,0.00,VWS V13.01,2013-06-18 18:54:00,
2013-06-18 15:04:00,94.3,76.2,29.68,SE,135,4.7,7.6,56,0.00,,---,0.00,VWS V13.01,2013-06-18 19:04:00,
2013-06-18 15:09:00,94.3,76.2,29.68,SE,135,4.7,4.7,56,0.00,,---,0.00,VWS V13.01,2013-06-18 19:09:00,
2013-06-18 15:19:00,93.0,75.5,29.67,SE,135,2.2,9.0,57,0.00,,---,0.00,VWS V13.01,2013-06-18 19:19:00,
2013-06-18 15:29:00,93.0,75.5,29.67,WSW,248,8.1,8.1,57,0.00,,---,0.00,VWS V13.01,2013-06-18 19:29:00,
2013-06-18 15:34:00,92.8,75.4,29.67,WSW,248,6.7,8.1,57,0.00,,---,0.00,VWS V13.01,2013-06-18 19:34:00,
2013-06-18 15:44:00,92.5,75.6,29.66,WSW,248,3.1,6.7,58,0.00,,---,0.00,VWS V13.01,2013-06-18 19:44:00,
2013-06-18 15:54:00,92.3,75.4,29.66,WSW,248,3.1,4.7,58,0.00,,---,0.00,VWS V13.01,2013-06-18 19:54:00,
2013-06-18 15:59:00,93.0,75.5,29.66,ENE,68,6.9,7.4,57,0.00,,---,0.00,VWS V13.01,2013-06-18 19:59:00,
2013-06-18 16:09:00,93.4,75.9,29.66,WSW,248,6.7,6.7,57,0.00,,---,0.00,VWS V13.01,2013-06-18 20:09:00,
2013-06-18 16:19:00,92.8,75.4,29.65,WSW,248,7.2,7.2,57,0.00,,---,0.00,VWS V13.01,2013-06-18 20:19:00,
2013-06-18 16:24:00,92.5,75.0,29.65,WSW,248,6.7,7.8,57,0.00,,---,0.00,VWS V13.01,2013-06-18 20:24:00,
2013-06-18 16:34:00,92.5,75.0,29.65,WSW,248,7.4,7.4,57,0.00,,---,0.00,VWS V13.01,2013-06-18 20:34:00,
2013-06-18 16:39:00,92.5,75.6,29.65,WSW,248,4.3,7.4,58,0.00,,---,0.00,VWS V13.01,2013-06-18 20:39:00,
2013-06-18 16:49:00,92.8,75.9,29.65,WSW,248,7.4,7.4,58,0.00,,---,0.00,VWS V13.01,2013-06-18 20:49:00,
2013-06-18 16:59:00,91.6,74.7,29.65,WSW,248,4.0,4.3,58,0.00,,---,0.00,VWS V13.01,2013-06-18 20:59:00,
2013-06-18 17:04:00,91.6,74.7,29.64,WSW,248,0.0,4.0,58,0.00,,---,0.00,VWS V13.01,2013-06-18 21:04:00,
2013-06-18 17:14:00,91.6,75.2,29.64,WSW,248,4.5,10.1,59,0.00,,---,0.00,VWS V13.01,2013-06-18 21:14:00,
2013-06-18 17:24:00,91.8,75.4,29.64,WSW,248,0.4,7.4,59,0.00,,---,0.00,VWS V13.01,2013-06-18 21:24:00,
2013-06-18 17:29:00,91.9,75.6,29.64,WSW,248,0.4,0.4,59,0.00,,---,0.00,VWS V13.01,2013-06-18 21:29:00,
2013-06-18 17:39:00,91.2,74.9,29.65,WSW,248,7.4,7.4,59,0.00,,---,0.00,VWS V13.01,2013-06-18 21:39:00,
2013-06-18 17:44:00,91.2,74.9,29.65,WSW,248,6.3,7.4,59,0.00,,---,0.00,VWS V13.01,2013-06-18 21:44:00,
2013-06-18 17:54:00,91.4,75.1,29.65,WSW,248,5.8,6.7,59,0.00,,---,0.00,VWS V13.01,2013-06-18 21:54:00,
2013-06-18 18:04:00,91.0,75.2,29.64,WSW,248,6.0,9.6,60,0.00,,---,0.00,VWS V13.01,2013-06-18 22:04:00,
2013-06-18 18:14:00,90.3,74.6,29.64,WSW,248,3.1,3.8,60,0.00,,---,0.00,VWS V13.01,2013-06-18 22:14:00,
2013-06-18 18:19:00,90.3,74.6,29.64,WSW,248,7.6,7.6,60,0.00,,---,0.00,VWS V13.01,2013-06-18 22:19:00,
2013-06-18 18:29:00,90.1,74.9,29.63,WSW,248,6.9,6.9,61,0.00,,---,0.00,VWS V13.01,2013-06-18 22:29:00,
2013-06-18 18:39:00,90.0,75.2,29.64,WSW,248,6.5,6.5,62,0.00,,---,0.00,VWS V13.01,2013-06-18 22:39:00,
2013-06-18 18:49:00,88.9,74.7,29.64,WSW,248,2.0,5.4,63,0.00,,---,0.00,VWS V13.01,2013-06-18 22:49:00,
2013-06-18 18:54:00,89.2,75.0,29.63,WSW,248,8.1,8.1,63,0.00,,---,0.00,VWS V13.01,2013-06-18 22:54:00,
2013-06-18 18:59:00,88.9,74.7,29.64,SSE,158,6.5,8.1,63,0.00,,---,0.00,VWS V13.01,2013-06-18 22:59:00,
2013-06-18 19:09:00,88.2,74.0,29.64,South,180,10.5,10.5,63,0.00,,---,0.00,VWS V13.01,2013-06-18 23:09:00,
2013-06-18 19:19:00,87.8,74.1,29.64,ESE,112,4.0,4.0,64,0.00,,---,0.00,VWS V13.01,2013-06-18 23:19:00,
2013-06-18 19:29:00,87.1,73.9,29.65,SSE,158,10.7,10.7,65,0.00,,---,0.00,VWS V13.01,2013-06-18 23:29:00,
2013-06-18 19:39:00,86.9,73.7,29.65,SE,135,3.4,3.4,65,0.00,,---,0.00,VWS V13.01,2013-06-18 23:39:00,
2013-06-18 19:49:00,86.2,73.5,29.65,East,90,4.7,7.4,66,0.00,,---,0.00,VWS V13.01,2013-06-18 23:49:00,
2013-06-18 19:59:00,85.8,73.2,29.65,South,180,7.6,7.6,66,0.00,,---,0.00,VWS V13.01,2013-06-18 23:59:00,
2013-06-18 20:09:00,85.6,73.4,29.65,SSE,158,0.0,6.9,67,0.00,,---,0.00,VWS V13.01,2013-06-19 00:09:00,
2013-06-18 20:14:00,85.3,73.1,29.65,SE,135,1.6,6.7,67,0.00,,---,0.00,VWS V13.01,2013-06-19 00:14:00,
2013-06-18 20:24:00,85.1,72.9,29.65,East,90,0.7,2.5,67,0.00,,---,0.00,VWS V13.01,2013-06-19 00:24:00,
2013-06-18 20:29:00,85.1,72.9,29.65,SSE,158,4.7,4.7,67,0.00,,---,0.00,VWS V13.01,2013-06-19 00:29:00,
2013-06-18 20:39:00,84.9,72.8,29.65,South,180,6.3,6.3,67,0.00,,---,0.00,VWS V13.01,2013-06-19 00:39:00,
2013-06-18 20:44:00,84.9,72.8,29.66,SSE,158,2.9,7.2,67,0.00,,---,0.00,VWS V13.01,2013-06-19 00:44:00,
2013-06-18 20:54:00,84.7,73.0,29.66,South,180,4.3,7.4,68,0.00,,---,0.00,VWS V13.01,2013-06-19 00:54:00,
2013-06-18 20:59:00,84.7,73.0,29.66,South,180,7.8,7.8,68,0.00,,---,0.00,VWS V13.01,2013-06-19 00:59:00,
2013-06-18 21:09:00,84.7,73.0,29.66,South,180,4.5,10.3,68,0.00,,---,0.00,VWS V13.01,2013-06-19 01:09:00,
2013-06-18 21:19:00,84.6,72.8,29.67,SE,135,5.4,6.7,68,0.00,,---,0.00,VWS V13.01,2013-06-19 01:19:00,
2013-06-18 21:29:00,84.6,72.8,29.67,South,180,3.4,10.3,68,0.00,,---,0.00,VWS V13.01,2013-06-19 01:29:00,
2013-06-18 21:39:00,84.6,73.3,29.67,South,180,6.3,6.3,69,0.00,,---,0.00,VWS V13.01,2013-06-19 01:39:00,
2013-06-18 21:49:00,84.4,73.1,29.68,SSW,202,3.1,6.7,69,0.00,,---,0.00,VWS V13.01,2013-06-19 01:49:00,
2013-06-18 21:59:00,84.4,73.1,29.68,South,180,6.0,6.0,69,0.00,,---,0.00,VWS V13.01,2013-06-19 01:59:00,
2013-06-18 22:04:00,84.4,73.5,29.68,South,180,6.0,6.0,70,0.00,,---,0.00,VWS V13.01,2013-06-19 02:04:00,
2013-06-18 22:09:00,84.2,73.4,29.68,South,180,5.1,6.0,70,0.00,,---,0.00,VWS V13.01,2013-06-19 02:09:00,
2013-06-18 22:19:00,84.2,73.4,29.67,SSE,158,6.5,6.5,70,0.00,,---,0.00,VWS V13.01,2013-06-19 02:19:00,
2013-06-18 22:24:00,84.0,73.2,29.67,South,180,6.9,6.9,70,0.00,,---,0.00,VWS V13.01,2013-06-19 02:24:00,
2013-06-18 22:34:00,84.0,73.6,29.67,SSE,158,1.6,6.9,71,0.00,,---,0.00,VWS V13.01,2013-06-19 02:34:00,
2013-06-18 22:44:00,83.8,73.4,29.67,SSE,158,1.1,3.1,71,0.00,,---,0.00,VWS V13.01,2013-06-19 02:44:00,
2013-06-18 22:54:00,83.8,73.4,29.67,SE,135,2.7,5.8,71,0.00,,---,0.00,VWS V13.01,2013-06-19 02:54:00,
2013-06-18 23:04:00,83.8,73.4,29.68,South,180,7.6,7.6,71,0.00,,---,0.00,VWS V13.01,2013-06-19 03:04:00,
2013-06-18 23:09:00,83.8,73.4,29.68,South,180,4.3,7.6,71,0.00,,---,0.00,VWS V13.01,2013-06-19 03:09:00,
2013-06-18 23:19:00,83.8,73.4,29.69,South,180,7.4,7.4,71,0.00,,---,0.00,VWS V13.01,2013-06-19 03:19:00,
2013-06-18 23:29:00,83.7,73.3,29.69,SE,135,5.8,5.8,71,0.00,,---,0.00,VWS V13.01,2013-06-19 03:29:00,
2013-06-18 23:34:00,83.5,73.1,29.69,South,180,1.1,5.8,71,0.00,,---,0.00,VWS V13.01,2013-06-19 03:34:00,
2013-06-18 23:44:00,83.5,73.1,29.69,South,180,3.8,3.8,71,0.00,,---,0.00,VWS V13.01,2013-06-19 03:44:00,
2013-06-18 23:49:00,83.5,73.1,29.69,South,180,4.3,4.3,71,0.00,,---,0.00,VWS V13.01,2013-06-19 03:49:00,
2013-06-18 23:59:00,83.5,73.1,29.69,South,180,0.7,6.3,71,0.00,,---,0.00,VWS V13.01,2013-06-19 03:59:00,